createdAt,value
2023-05-21T00:02:23.608Z,13.80
2023-05-21T00:04:56.848Z,13.73
2023-05-21T00:07:31.536Z,13.79
2023-05-21T00:10:04.943Z,13.79
2023-05-21T00:12:38.084Z,13.91
2023-05-21T00:15:11.950Z,13.86
2023-05-21T00:17:46.544Z,13.84
2023-05-21T00:20:19.818Z,13.86
2023-05-21T00:22:52.997Z,13.87
2023-05-21T00:25:26.234Z,13.82
2023-05-21T00:27:59.332Z,13.79
2023-05-21T00:30:32.527Z,13.79
2023-05-21T00:33:07.589Z,13.74
2023-05-21T00:35:41.123Z,13.76
2023-05-21T00:38:14.378Z,13.91
2023-05-21T00:40:47.579Z,13.90
2023-05-21T00:43:26.107Z,13.76
2023-05-21T00:45:59.376Z,13.76
2023-05-21T00:48:34.075Z,13.51
2023-05-21T00:51:08.046Z,13.43
2023-05-21T00:53:41.857Z,13.51
2023-05-21T00:56:15.209Z,13.36
2023-05-21T00:58:49.005Z,13.36
2023-05-21T01:01:22.326Z,13.29
2023-05-21T01:03:57.900Z,13.34
2023-05-21T01:06:34.893Z,13.38
2023-05-21T01:09:09.307Z,13.28
2023-05-21T01:11:47.370Z,13.39
2023-05-21T01:14:22.433Z,13.45
2023-05-21T01:16:55.912Z,13.23
2023-05-21T01:19:32.590Z,13.25
2023-05-21T01:22:07.758Z,13.22
2023-05-21T01:24:47.653Z,13.22
2023-05-21T01:27:21.043Z,13.31
2023-05-21T01:29:54.202Z,13.32
2023-05-21T01:32:35.846Z,13.46
2023-05-21T01:35:13.156Z,13.52
2023-05-21T01:37:51.926Z,13.45
2023-05-21T01:40:34.465Z,13.52
2023-05-21T01:43:10.367Z,13.67
2023-05-21T01:45:46.309Z,13.72
2023-05-21T01:48:20.897Z,13.69
2023-05-21T01:50:55.598Z,13.77
2023-05-21T01:53:28.833Z,13.74
2023-05-21T01:56:03.937Z,13.82
2023-05-21T01:58:37.351Z,13.86
2023-05-21T02:01:12.036Z,13.87
2023-05-21T02:03:45.370Z,13.77
2023-05-21T02:06:18.741Z,13.73
2023-05-21T02:08:52.210Z,13.77
2023-05-21T02:11:27.911Z,13.76
2023-05-21T02:14:01.173Z,13.69
2023-05-21T02:16:34.780Z,13.61
2023-05-21T02:19:10.572Z,13.61
2023-05-21T02:21:43.828Z,13.56
2023-05-21T02:24:17.033Z,13.53
2023-05-21T02:26:52.500Z,13.53
2023-05-21T02:29:26.207Z,13.56
2023-05-21T02:31:59.460Z,13.61
2023-05-21T02:34:37.357Z,13.49
2023-05-21T02:37:10.795Z,13.52
2023-05-21T02:39:44.036Z,13.52
2023-05-21T02:42:18.599Z,13.48
2023-05-21T02:44:52.907Z,13.52
2023-05-21T02:47:27.399Z,13.43
2023-05-21T02:50:02.648Z,13.46
2023-05-21T02:52:36.821Z,13.41
2023-05-21T02:55:11.100Z,13.48
2023-05-21T02:57:45.654Z,13.42
2023-05-21T03:00:19.013Z,13.43
2023-05-21T03:02:52.376Z,13.49
2023-05-21T03:05:25.870Z,13.48
2023-05-21T03:07:59.108Z,13.32
2023-05-21T03:10:32.521Z,13.42
2023-05-21T03:13:09.525Z,13.38
2023-05-21T03:15:44.013Z,13.38
2023-05-21T03:18:17.222Z,13.42
2023-05-21T03:20:50.529Z,13.45
2023-05-21T03:23:23.611Z,13.46
2023-05-21T03:25:57.194Z,13.41
2023-05-21T03:28:32.292Z,13.43
2023-05-21T03:31:05.877Z,13.38
2023-05-21T03:33:57.014Z,13.34
2023-05-21T03:36:34.054Z,13.31
2023-05-21T03:39:08.715Z,13.32
2023-05-21T03:41:42.218Z,13.41
2023-05-21T03:44:33.443Z,13.34
2023-05-21T03:47:19.041Z,13.52
2023-05-21T03:49:52.366Z,13.49
2023-05-21T03:52:25.836Z,13.51
2023-05-21T03:54:59.207Z,13.43
2023-05-21T03:57:32.557Z,13.41
2023-05-21T04:00:09.053Z,13.48
2023-05-21T04:02:49.041Z,13.42
2023-05-21T04:05:23.886Z,13.43
2023-05-21T04:07:58.822Z,13.34
2023-05-21T04:10:32.027Z,13.46
2023-05-21T04:13:05.213Z,13.41
2023-05-21T04:15:40.019Z,13.49
2023-05-21T04:18:13.715Z,13.41
2023-05-21T04:20:47.081Z,13.36
2023-05-21T04:23:20.414Z,13.28
2023-05-21T04:25:53.995Z,13.26
2023-05-21T04:28:28.977Z,13.25
2023-05-21T04:31:05.812Z,13.36
2023-05-21T04:33:42.115Z,13.49
2023-05-21T04:36:17.297Z,13.48
2023-05-21T04:38:51.103Z,13.45
2023-05-21T04:41:24.355Z,13.39
2023-05-21T04:43:58.787Z,13.46
2023-05-21T04:46:39.658Z,13.36
2023-05-21T04:49:15.366Z,13.29
2023-05-21T04:51:49.386Z,13.28
2023-05-21T04:54:22.889Z,13.51
2023-05-21T04:56:58.152Z,13.61
2023-05-21T04:59:31.993Z,13.58
2023-05-21T05:02:06.750Z,13.61
2023-05-21T05:04:39.986Z,13.66
2023-05-21T05:07:13.674Z,13.70
2023-05-21T05:09:46.918Z,13.67
2023-05-21T05:12:20.539Z,13.67
2023-05-21T05:14:53.676Z,13.72
2023-05-21T05:17:28.286Z,13.82
2023-05-21T05:20:01.656Z,13.87
2023-05-21T05:22:35.776Z,13.96
2023-05-21T05:25:09.815Z,14.03
2023-05-21T05:27:43.138Z,14.13
2023-05-21T05:30:16.407Z,14.25
2023-05-21T05:32:51.173Z,14.42
2023-05-21T05:35:24.665Z,14.44
2023-05-21T05:38:00.452Z,14.67
2023-05-21T05:40:39.251Z,14.64
2023-05-21T05:43:12.473Z,14.71
2023-05-21T05:45:45.726Z,14.84
2023-05-21T05:48:22.323Z,14.98
2023-05-21T05:50:57.130Z,14.95
2023-05-21T05:53:32.487Z,15.12
2023-05-21T05:56:06.431Z,15.03
2023-05-21T05:58:39.607Z,14.96
2023-05-21T06:01:17.707Z,15.03
2023-05-21T06:03:52.415Z,15.19
2023-05-21T06:06:25.702Z,15.22
2023-05-21T06:08:59.097Z,15.35
2023-05-21T06:11:32.311Z,15.60
2023-05-21T06:14:05.549Z,15.42
2023-05-21T06:16:39.366Z,15.60
2023-05-21T06:19:14.059Z,15.86
2023-05-21T06:21:47.357Z,16.01
2023-05-21T06:24:20.651Z,16.03
2023-05-21T06:26:53.847Z,16.20
2023-05-21T06:29:27.138Z,16.35
2023-05-21T06:32:01.760Z,16.15
2023-05-21T06:34:36.313Z,16.31
2023-05-21T06:37:09.560Z,16.38
2023-05-21T06:39:43.929Z,16.18
2023-05-21T06:42:17.723Z,16.05
2023-05-21T06:45:00.061Z,16.25
2023-05-21T06:47:36.886Z,16.42
2023-05-21T06:50:11.911Z,16.22
2023-05-21T06:52:45.203Z,16.59
2023-05-21T06:55:18.415Z,16.66
2023-05-21T06:58:17.650Z,16.56
2023-05-21T07:00:51.076Z,16.72
2023-05-21T07:03:24.469Z,16.56
2023-05-21T07:05:59.381Z,16.41
2023-05-21T07:08:32.628Z,16.34
2023-05-21T07:11:06.147Z,16.40
2023-05-21T07:13:39.468Z,16.66
2023-05-21T07:16:12.964Z,16.41
2023-05-21T07:18:47.332Z,16.36
2023-05-21T07:21:22.319Z,16.51
2023-05-21T07:23:57.164Z,16.62
2023-05-21T07:26:30.366Z,16.64
2023-05-21T07:29:03.660Z,16.87
2023-05-21T07:31:36.971Z,16.62
2023-05-21T07:34:10.256Z,16.65
2023-05-21T07:36:48.915Z,17.02
2023-05-21T07:39:22.816Z,16.96
2023-05-21T07:41:58.453Z,17.13
2023-05-21T07:44:32.006Z,17.23
2023-05-21T07:47:05.751Z,17.53
2023-05-21T07:49:39.042Z,17.43
2023-05-21T07:52:13.633Z,17.03
2023-05-21T07:54:46.774Z,16.95
2023-05-21T07:57:20.065Z,16.96
2023-05-21T08:00:01.503Z,16.52
2023-05-21T08:02:37.570Z,16.82
2023-05-21T08:05:11.489Z,16.85
2023-05-21T08:07:47.093Z,17.10
2023-05-21T08:10:20.563Z,17.37
2023-05-21T08:12:55.695Z,17.82
2023-05-21T08:15:29.181Z,18.21
2023-05-21T08:18:02.403Z,17.87
2023-05-21T08:20:36.150Z,18.02
2023-05-21T08:23:10.681Z,18.02
2023-05-21T08:25:48.668Z,18.06
2023-05-21T08:28:23.339Z,17.98
2023-05-21T08:30:57.976Z,18.38
2023-05-21T08:33:31.704Z,19.24
2023-05-21T08:36:05.565Z,20.04
2023-05-21T08:38:45.059Z,19.93
2023-05-21T08:41:24.389Z,19.91
2023-05-21T08:43:58.640Z,19.92
2023-05-21T08:46:34.989Z,20.09
2023-05-21T08:49:13.178Z,20.74
2023-05-21T08:51:48.532Z,20.70
2023-05-21T08:54:23.819Z,20.16
2023-05-21T08:56:59.337Z,20.40
2023-05-21T08:59:32.488Z,20.73
2023-05-21T09:02:08.710Z,20.64
2023-05-21T09:04:48.311Z,20.40
2023-05-21T09:07:22.846Z,20.26
2023-05-21T09:10:18.363Z,20.30
2023-05-21T09:12:52.391Z,20.30
2023-05-21T09:15:26.001Z,20.12
2023-05-21T09:17:59.384Z,20.39
2023-05-21T09:20:59.956Z,20.30
2023-05-21T09:23:34.071Z,20.47
2023-05-21T09:26:13.990Z,20.43
2023-05-21T09:28:47.135Z,20.26
2023-05-21T09:31:25.915Z,20.02
2023-05-21T09:33:59.289Z,20.12
2023-05-21T09:36:34.707Z,20.94
2023-05-21T09:39:16.392Z,22.35
2023-05-21T09:41:51.779Z,22.95
2023-05-21T09:44:25.923Z,23.45
2023-05-21T09:47:00.052Z,23.28
2023-05-21T09:49:33.432Z,22.84
2023-05-21T09:52:07.263Z,21.93
2023-05-21T09:54:40.715Z,21.17
2023-05-21T09:57:15.631Z,21.78
2023-05-21T09:59:51.902Z,22.09
2023-05-21T10:02:26.858Z,22.00
2023-05-21T10:05:00.669Z,22.59
2023-05-21T10:07:35.804Z,23.48
2023-05-21T10:10:14.749Z,23.48
2023-05-21T10:12:55.930Z,22.98
2023-05-21T10:15:32.915Z,22.95
2023-05-21T10:18:09.218Z,22.80
2023-05-21T10:20:45.461Z,22.83
2023-05-21T10:23:19.878Z,22.81
2023-05-21T10:25:55.097Z,23.04
2023-05-21T10:28:31.117Z,23.31
2023-05-21T10:31:05.367Z,23.19
2023-05-21T10:33:39.886Z,22.74
2023-05-21T10:36:13.239Z,22.27
2023-05-21T10:38:48.013Z,21.99
2023-05-21T10:41:24.681Z,21.81
2023-05-21T10:44:12.196Z,21.03
2023-05-21T10:47:10.955Z,21.30
2023-05-21T10:49:59.287Z,21.95
2023-05-21T10:52:51.489Z,22.50
2023-05-21T10:55:43.800Z,23.01
2023-05-21T10:58:39.065Z,22.81
2023-05-21T11:01:15.229Z,22.17
2023-05-21T11:03:49.148Z,21.71
2023-05-21T11:06:27.876Z,22.05
2023-05-21T11:09:03.908Z,22.39
2023-05-21T11:11:46.192Z,23.15
2023-05-21T11:14:31.906Z,22.78
2023-05-21T11:17:12.667Z,22.94
2023-05-21T11:19:48.004Z,23.01
2023-05-21T11:22:25.512Z,23.21
2023-05-21T11:25:03.557Z,23.33
2023-05-21T11:27:38.368Z,23.58
2023-05-21T11:30:17.406Z,23.83
2023-05-21T11:33:22.373Z,24.06
2023-05-21T11:36:00.211Z,23.31
2023-05-21T11:38:34.101Z,23.11
2023-05-21T11:41:10.639Z,23.31
2023-05-21T11:43:45.215Z,24.24
2023-05-21T11:46:19.319Z,24.46
2023-05-21T11:48:54.351Z,24.07
2023-05-21T11:51:27.653Z,23.95
2023-05-21T11:54:01.249Z,24.67
2023-05-21T11:56:35.092Z,25.42
2023-05-21T11:59:16.689Z,24.50
2023-05-21T12:01:51.752Z,24.36
2023-05-21T12:04:32.420Z,23.65
2023-05-21T12:07:07.307Z,23.28
2023-05-21T12:09:45.748Z,23.85
2023-05-21T12:12:21.422Z,24.12
2023-05-21T12:14:56.342Z,24.77
2023-05-21T12:17:31.652Z,25.19
2023-05-21T12:20:09.340Z,25.52
2023-05-21T12:22:44.220Z,24.41
2023-05-21T12:25:20.035Z,24.10
2023-05-21T12:27:58.936Z,23.56
2023-05-21T12:30:32.678Z,24.26
2023-05-21T12:33:05.983Z,24.81
2023-05-21T12:35:40.620Z,24.94
2023-05-21T12:38:13.922Z,25.22
2023-05-21T12:40:47.253Z,26.30
2023-05-21T12:43:20.453Z,26.57
2023-05-21T12:45:54.749Z,25.76
2023-05-21T12:48:27.984Z,25.60
2023-05-21T12:51:02.477Z,25.26
2023-05-21T12:53:39.114Z,25.01
2023-05-21T12:56:13.461Z,25.43
2023-05-21T12:58:51.604Z,26.37
2023-05-21T13:01:24.778Z,27.02
2023-05-21T13:03:58.037Z,27.33
2023-05-21T13:06:43.273Z,26.24
2023-05-21T13:09:16.516Z,26.03
2023-05-21T13:11:49.663Z,26.21
2023-05-21T13:14:22.815Z,26.88
2023-05-21T13:16:56.117Z,27.33
2023-05-21T13:19:29.468Z,26.94
2023-05-21T13:22:04.877Z,27.28
2023-05-21T13:24:39.849Z,26.58
2023-05-21T13:27:13.078Z,25.83
2023-05-21T13:29:46.260Z,26.27
2023-05-21T13:32:19.434Z,26.79
2023-05-21T13:34:52.574Z,26.64
2023-05-21T13:37:27.134Z,26.03
2023-05-21T13:40:00.333Z,25.67
2023-05-21T13:42:33.796Z,25.63
2023-05-21T13:45:08.073Z,26.20
2023-05-21T13:47:43.021Z,25.87
2023-05-21T13:50:17.704Z,25.35
2023-05-21T13:52:52.258Z,25.62
2023-05-21T13:55:25.414Z,25.49
2023-05-21T13:58:01.061Z,25.80
2023-05-21T14:00:34.433Z,25.59
2023-05-21T14:03:09.924Z,25.26
2023-05-21T14:05:45.718Z,25.11
2023-05-21T14:08:20.969Z,25.45
2023-05-21T14:10:54.200Z,26.57
2023-05-21T14:13:27.590Z,27.23
2023-05-21T14:16:00.955Z,26.84
2023-05-21T14:18:34.170Z,26.48
2023-05-21T14:21:07.477Z,26.13
2023-05-21T14:23:42.094Z,25.97
2023-05-21T14:26:15.505Z,26.23
2023-05-21T14:28:48.753Z,26.58
2023-05-21T14:31:23.409Z,26.52
2023-05-21T14:33:56.641Z,26.16
2023-05-21T14:36:33.081Z,26.47
2023-05-21T14:39:07.730Z,26.67
2023-05-21T14:41:41.013Z,27.19
2023-05-21T14:44:14.211Z,27.08
2023-05-21T14:46:47.420Z,26.48
2023-05-21T14:49:20.617Z,27.00
2023-05-21T14:51:53.811Z,26.65
2023-05-21T14:54:28.352Z,26.25
2023-05-21T14:57:01.708Z,25.31
2023-05-21T14:59:35.003Z,25.46
2023-05-21T15:02:10.690Z,25.41
2023-05-21T15:04:43.846Z,25.19
2023-05-21T15:07:17.002Z,24.89
2023-05-21T15:09:51.507Z,25.15
2023-05-21T15:12:24.797Z,24.96
2023-05-21T15:14:57.913Z,24.96
2023-05-21T15:17:31.234Z,24.60
2023-05-21T15:20:05.408Z,25.07
2023-05-21T15:22:38.604Z,25.08
2023-05-21T15:25:13.225Z,25.36
2023-05-21T15:27:46.959Z,25.49
2023-05-21T15:30:22.422Z,25.86
2023-05-21T15:32:55.715Z,26.72
2023-05-21T15:35:29.052Z,27.22
2023-05-21T15:38:02.360Z,27.29
2023-05-21T15:40:36.959Z,27.32
2023-05-21T15:43:10.129Z,26.88
2023-05-21T15:45:43.255Z,26.10
2023-05-21T15:48:22.414Z,26.41
2023-05-21T15:50:55.600Z,26.20
2023-05-21T15:53:28.865Z,26.72
2023-05-21T15:56:03.659Z,26.59
2023-05-21T15:58:36.963Z,26.45
2023-05-21T16:01:10.231Z,26.30
2023-05-21T16:03:43.502Z,26.62
2023-05-21T16:06:16.753Z,26.04
2023-05-21T16:08:50.044Z,25.82
2023-05-21T16:11:25.438Z,25.54
2023-05-21T16:13:58.876Z,25.39
2023-05-21T16:16:32.118Z,25.54
2023-05-21T16:19:05.386Z,25.39
2023-05-21T16:21:38.674Z,25.02
2023-05-21T16:24:11.860Z,24.72
2023-05-21T16:26:47.463Z,24.94
2023-05-21T16:29:22.100Z,25.11
2023-05-21T16:31:55.407Z,24.87
2023-05-21T16:34:28.746Z,24.77
2023-05-21T16:37:01.887Z,24.82
2023-05-21T16:39:35.186Z,24.72
2023-05-21T16:42:09.772Z,24.71
2023-05-21T16:44:43.007Z,24.88
2023-05-21T16:47:16.319Z,24.79
2023-05-21T16:49:49.469Z,24.84
2023-05-21T16:52:25.106Z,24.95
2023-05-21T16:54:58.287Z,25.09
2023-05-21T16:57:32.956Z,25.22
2023-05-21T17:00:07.897Z,24.91
2023-05-21T17:02:41.109Z,24.67
2023-05-21T17:05:14.298Z,24.79
2023-05-21T17:07:47.691Z,24.60
2023-05-21T17:10:21.195Z,24.41
2023-05-21T17:12:56.418Z,24.43
2023-05-21T17:15:30.445Z,24.48
2023-05-21T17:18:03.725Z,24.56
2023-05-21T17:20:37.027Z,24.68
2023-05-21T17:23:10.358Z,24.67
2023-05-21T17:25:43.590Z,24.61
2023-05-21T17:28:19.271Z,24.61
2023-05-21T17:30:52.503Z,24.61
2023-05-21T17:33:25.647Z,24.69
2023-05-21T17:35:58.886Z,24.91
2023-05-21T17:38:32.216Z,24.92
2023-05-21T17:41:05.831Z,24.43
2023-05-21T17:43:40.483Z,24.31
2023-05-21T17:46:16.792Z,24.31
2023-05-21T17:48:52.251Z,24.48
2023-05-21T17:51:25.394Z,24.77
2023-05-21T17:53:58.568Z,24.82
2023-05-21T17:56:34.343Z,24.67
2023-05-21T17:59:09.691Z,24.50
2023-05-21T18:01:42.872Z,24.36
2023-05-21T18:04:16.214Z,24.18
2023-05-21T18:06:49.552Z,23.99
2023-05-21T18:09:22.876Z,23.96
2023-05-21T18:11:56.255Z,23.87
2023-05-21T18:14:30.903Z,23.80
2023-05-21T18:17:04.256Z,23.76
2023-05-21T18:19:37.625Z,23.75
2023-05-21T18:22:10.824Z,23.87
2023-05-21T18:24:44.056Z,23.67
2023-05-21T18:27:17.263Z,23.58
2023-05-21T18:29:52.151Z,23.45
2023-05-21T18:32:25.619Z,23.37
2023-05-21T18:34:59.356Z,23.37
2023-05-21T18:37:32.540Z,23.46
2023-05-21T18:40:07.412Z,23.39
2023-05-21T18:42:40.657Z,23.28
2023-05-21T18:45:16.177Z,23.21
2023-05-21T18:47:49.416Z,23.24
2023-05-21T18:50:23.052Z,23.08
2023-05-21T18:52:57.051Z,23.11
2023-05-21T18:55:30.237Z,23.08
2023-05-21T18:58:03.409Z,22.98
2023-05-21T19:00:39.652Z,22.88
2023-05-21T19:03:12.996Z,22.71
2023-05-21T19:05:46.228Z,22.65
2023-05-21T19:08:19.468Z,22.72
2023-05-21T19:10:53.230Z,22.70
2023-05-21T19:13:26.523Z,22.77
2023-05-21T19:16:02.191Z,22.70
2023-05-21T19:18:35.404Z,22.80
2023-05-21T19:21:08.717Z,22.72
2023-05-21T19:23:52.598Z,22.53
2023-05-21T19:26:26.940Z,22.54
2023-05-21T19:29:00.168Z,22.64
2023-05-21T19:31:34.992Z,22.46
2023-05-21T19:34:10.872Z,22.35
2023-05-21T19:36:52.846Z,22.16
2023-05-21T19:39:26.460Z,22.06
2023-05-21T19:41:59.782Z,22.00
2023-05-21T19:44:33.057Z,22.02
2023-05-21T19:47:08.402Z,21.99
2023-05-21T19:49:41.677Z,21.93
2023-05-21T19:52:15.018Z,22.03
2023-05-21T19:54:48.301Z,21.96
2023-05-21T19:57:21.674Z,21.82
2023-05-21T19:59:54.915Z,21.71
2023-05-21T20:02:29.592Z,21.69
2023-05-21T20:05:02.859Z,21.83
2023-05-21T20:07:36.033Z,21.83
2023-05-21T20:10:09.960Z,21.62
2023-05-21T20:12:43.105Z,21.48
2023-05-21T20:15:16.648Z,21.39
2023-05-21T20:17:51.494Z,21.30
2023-05-21T20:20:26.732Z,21.21
2023-05-21T20:23:03.228Z,21.12
2023-05-21T20:25:36.420Z,21.14
2023-05-21T20:28:09.865Z,20.93
2023-05-21T20:30:54.590Z,20.90
2023-05-21T20:33:32.248Z,20.98
2023-05-21T20:36:05.649Z,20.97
2023-05-21T20:38:39.099Z,20.90
2023-05-21T20:41:13.028Z,20.81
2023-05-21T20:43:46.604Z,20.81
2023-05-21T20:46:19.939Z,20.94
2023-05-21T20:48:58.028Z,20.79
2023-05-21T20:51:31.341Z,20.72
2023-05-21T20:54:04.698Z,20.66
2023-05-21T20:56:42.512Z,20.53
2023-05-21T20:59:16.094Z,20.60
2023-05-21T21:01:50.517Z,20.50
2023-05-21T21:04:25.704Z,20.33
2023-05-21T21:07:01.949Z,20.49
2023-05-21T21:09:35.698Z,20.42
2023-05-21T21:12:24.633Z,20.37
2023-05-21T21:14:58.960Z,20.23
2023-05-21T21:17:32.183Z,20.10
2023-05-21T21:20:10.683Z,20.05
2023-05-21T21:22:43.922Z,20.00
2023-05-21T21:25:17.521Z,19.86
2023-05-21T21:27:50.772Z,19.95
2023-05-21T21:30:23.930Z,19.86
2023-05-21T21:32:57.262Z,19.75
2023-05-21T21:35:31.797Z,19.61
2023-05-21T21:38:05.709Z,19.48
2023-05-21T21:40:39.087Z,19.53
2023-05-21T21:43:12.704Z,19.51
2023-05-21T21:45:45.995Z,19.53
2023-05-21T21:48:19.238Z,19.54
2023-05-21T21:50:53.860Z,19.43
2023-05-21T21:53:27.111Z,19.34
2023-05-21T21:56:00.253Z,19.28
2023-05-21T21:58:33.484Z,19.16
2023-05-21T22:01:06.902Z,19.20
2023-05-21T22:03:40.101Z,19.06
2023-05-21T22:06:14.755Z,19.14
2023-05-21T22:08:50.370Z,19.06
2023-05-21T22:11:23.686Z,19.14
2023-05-21T22:13:57.375Z,19.03
2023-05-21T22:16:30.618Z,18.97
2023-05-21T22:19:03.822Z,18.97
2023-05-21T22:21:38.405Z,19.00
2023-05-21T22:24:24.132Z,19.14
2023-05-21T22:27:04.664Z,19.04
2023-05-21T22:29:37.816Z,19.16
2023-05-21T22:32:11.130Z,19.34
2023-05-21T22:34:44.380Z,19.46
2023-05-21T22:37:19.074Z,19.32
2023-05-21T22:39:52.270Z,19.27
2023-05-21T22:42:25.579Z,19.18
2023-05-21T22:44:59.177Z,19.21
2023-05-21T22:47:32.509Z,19.14
2023-05-21T22:50:06.392Z,19.27
2023-05-21T22:52:41.917Z,19.16
2023-05-21T22:55:15.903Z,19.14
2023-05-21T22:57:49.098Z,19.37
2023-05-21T23:00:22.659Z,19.32
2023-05-21T23:02:55.883Z,19.38
2023-05-21T23:05:29.110Z,19.53
2023-05-21T23:08:03.711Z,19.34
2023-05-21T23:10:36.966Z,19.50
2023-05-21T23:13:10.465Z,19.35
2023-05-21T23:15:44.111Z,19.48
2023-05-21T23:18:17.592Z,19.67
2023-05-21T23:20:53.299Z,19.39
2023-05-21T23:23:30.517Z,19.39
2023-05-21T23:26:03.732Z,19.43
2023-05-21T23:28:37.228Z,19.44
2023-05-21T23:31:10.971Z,19.50
2023-05-21T23:33:44.224Z,19.53
2023-05-21T23:36:17.390Z,19.39
2023-05-21T23:38:51.906Z,19.24
2023-05-21T23:41:25.209Z,19.28
2023-05-21T23:43:58.387Z,19.18
2023-05-21T23:46:31.572Z,19.16
2023-05-21T23:49:04.746Z,19.11
2023-05-21T23:51:38.112Z,19.03
2023-05-21T23:54:12.656Z,18.97
2023-05-21T23:56:46.192Z,18.90
2023-05-21T23:59:21.558Z,18.90
